FDX2760 KOKC-KDAL
Flight info
| Callsign | FDX2760 |
|---|---|
| Flight time | 0h 59m |
| Altitude | 17000 |
| Route | KRMSN4 KRMSN AIRRE HIBIL3 |
| Aircraft | AT76/M-SDFGIRY/S |
Departure
| Time | 2026-05-07 22:41 |
|---|---|
| Airport | OKC Will Rogers World Airport (KOKC) |
Arrival
| Time | 2026-05-07 23:41 |
|---|---|
| Airport | Dallas Love Field (KDAL) |
| Time | Latitude | Longitude | Altitude | Speed | Heading |
|---|---|---|---|---|---|
| 2026-05-07 22:19 | 35.40073 | -97.59231 | 1292 ft | 0 kts | 269° |
| 2026-05-07 22:25 | 35.40073 | -97.59220 | 1292 ft | 2 kts | 270° |
| 2026-05-07 22:25 | 35.40072 | -97.59200 | 1292 ft | 2 kts | 276° |
| 2026-05-07 22:25 | 35.40069 | -97.59180 | 1292 ft | 2 kts | 285° |
| 2026-05-07 22:25 | 35.40063 | -97.59161 | 1292 ft | 2 kts | 308° |
| 2026-05-07 22:26 | 35.40049 | -97.59150 | 1292 ft | 2 kts | 349° |
| 2026-05-07 22:26 | 35.40044 | -97.59149 | 1292 ft | 0 kts | 357° |
| 2026-05-07 22:28 | 35.40040 | -97.59148 | 1292 ft | 1 kts | 11° |
| 2026-05-07 22:29 | 35.40035 | -97.59151 | 1292 ft | 1 kts | 62° |
| 2026-05-07 22:29 | 35.40034 | -97.59158 | 1292 ft | 1 kts | 115° |
| 2026-05-07 22:29 | 35.40033 | -97.59156 | 1292 ft | 1 kts | 121° |
| 2026-05-07 22:29 | 35.40030 | -97.59151 | 1292 ft | 1 kts | 136° |
| 2026-05-07 22:30 | 35.40026 | -97.59148 | 1292 ft | 1 kts | 150° |
| 2026-05-07 22:30 | 35.40022 | -97.59147 | 1292 ft | 0 kts | 178° |
| 2026-05-07 22:30 | 35.40018 | -97.59147 | 1292 ft | 0 kts | 178° |
| 2026-05-07 22:32 | 35.40015 | -97.59147 | 1292 ft | 1 kts | 178° |
| 2026-05-07 22:32 | 35.39985 | -97.59147 | 1292 ft | 7 kts | 181° |
| 2026-05-07 22:32 | 35.39947 | -97.59147 | 1293 ft | 4 kts | 174° |
| 2026-05-07 22:33 | 35.39912 | -97.59081 | 1292 ft | 17 kts | 101° |
| 2026-05-07 22:33 | 35.39837 | -97.59059 | 1293 ft | 13 kts | 195° |
| 2026-05-07 22:33 | 35.39747 | -97.59063 | 1294 ft | 12 kts | 179° |
| 2026-05-07 22:33 | 35.39663 | -97.59062 | 1292 ft | 11 kts | 180° |
| 2026-05-07 22:34 | 35.39549 | -97.59062 | 1291 ft | 23 kts | 178° |
| 2026-05-07 22:34 | 35.39344 | -97.59063 | 1293 ft | 30 kts | 179° |
| 2026-05-07 22:34 | 35.39098 | -97.59060 | 1289 ft | 37 kts | 181° |
| 2026-05-07 22:34 | 35.38828 | -97.59062 | 1289 ft | 39 kts | 181° |
| 2026-05-07 22:35 | 35.38642 | -97.59062 | 1290 ft | 7 kts | 184° |
| 2026-05-07 22:35 | 35.38581 | -97.59064 | 1291 ft | 0 kts | 169° |
| 2026-05-07 22:35 | 35.38553 | -97.59063 | 1292 ft | 14 kts | 181° |
| 2026-05-07 22:35 | 35.38360 | -97.59066 | 1289 ft | 28 kts | 176° |
| 2026-05-07 22:36 | 35.38253 | -97.59066 | 1291 ft | 13 kts | 182° |
| 2026-05-07 22:36 | 35.38172 | -97.59066 | 1292 ft | 7 kts | 184° |
| 2026-05-07 22:36 | 35.38097 | -97.59062 | 1291 ft | 12 kts | 177° |
| 2026-05-07 22:36 | 35.38031 | -97.59061 | 1289 ft | 8 kts | 181° |
| 2026-05-07 22:37 | 35.37979 | -97.59063 | 1288 ft | 7 kts | 182° |
| 2026-05-07 22:37 | 35.37942 | -97.59069 | 1288 ft | 0 kts | 190° |
| 2026-05-07 22:37 | 35.37938 | -97.59069 | 1288 ft | 7 kts | 179° |
| 2026-05-07 22:37 | 35.37851 | -97.59040 | 1289 ft | 14 kts | 133° |
| 2026-05-07 22:38 | 35.37836 | -97.58997 | 1289 ft | 0 kts | 107° |
| 2026-05-07 22:40 | 35.37831 | -97.58951 | 1289 ft | 19 kts | 81° |
| 2026-05-07 22:40 | 35.37879 | -97.58894 | 1288 ft | 12 kts | 8° |
| 2026-05-07 22:40 | 35.37983 | -97.58892 | 1288 ft | 23 kts | 4° |
| 2026-05-07 22:40 | 35.38385 | -97.58895 | 1289 ft | 88 kts | 0° |
| 2026-05-07 22:41 | 35.39204 | -97.58906 | 1314 ft | 143 kts | 359° |
| 2026-05-07 22:41 | 35.40263 | -97.58849 | 1756 ft | 154 kts | 359° |
| 2026-05-07 22:41 | 35.41257 | -97.58829 | 2463 ft | 142 kts | 1° |
| 2026-05-07 22:41 | 35.42291 | -97.58770 | 2744 ft | 155 kts | 9° |
| 2026-05-07 22:42 | 35.43364 | -97.58509 | 3260 ft | 152 kts | 12° |
| 2026-05-07 22:42 | 35.44338 | -97.58228 | 3976 ft | 135 kts | 13° |
| 2026-05-07 22:42 | 35.45184 | -97.57978 | 4678 ft | 115 kts | 13° |
| 2026-05-07 22:42 | 35.45941 | -97.57758 | 4979 ft | 118 kts | 13° |
| 2026-05-07 22:43 | 35.46838 | -97.57479 | 5007 ft | 149 kts | 14° |
| 2026-05-07 22:43 | 35.47912 | -97.57088 | 5015 ft | 174 kts | 22° |
| 2026-05-07 22:43 | 35.48765 | -97.55946 | 5018 ft | 199 kts | 67° |
| 2026-05-07 22:43 | 35.48766 | -97.54154 | 5017 ft | 227 kts | 107° |
| 2026-05-07 22:44 | 35.47848 | -97.52495 | 5036 ft | 242 kts | 129° |
| 2026-05-07 22:44 | 35.47115 | -97.50641 | 5028 ft | 249 kts | 96° |
| 2026-05-07 22:44 | 35.47271 | -97.48547 | 5018 ft | 245 kts | 79° |
| 2026-05-07 22:44 | 35.47040 | -97.46485 | 5025 ft | 252 kts | 113° |
| 2026-05-07 22:45 | 35.45869 | -97.44884 | 5025 ft | 257 kts | 144° |
| 2026-05-07 22:45 | 35.44370 | -97.43735 | 5024 ft | 259 kts | 148° |
| 2026-05-07 22:45 | 35.42788 | -97.42606 | 5020 ft | 260 kts | 149° |
| 2026-05-07 22:45 | 35.41230 | -97.41532 | 5020 ft | 261 kts | 149° |
| 2026-05-07 22:46 | 35.39878 | -97.40119 | 5010 ft | 256 kts | 121° |
| 2026-05-07 22:46 | 35.39373 | -97.38073 | 5014 ft | 252 kts | 88° |
| 2026-05-07 22:46 | 35.39852 | -97.36055 | 5026 ft | 248 kts | 56° |
| 2026-05-07 22:46 | 35.41149 | -97.34715 | 5030 ft | 245 kts | 23° |
| 2026-05-07 22:47 | 35.42753 | -97.34050 | 5030 ft | 243 kts | 17° |
| 2026-05-07 22:47 | 35.44382 | -97.33478 | 5034 ft | 245 kts | 15° |
| 2026-05-07 22:47 | 35.46035 | -97.32930 | 5016 ft | 246 kts | 15° |
| 2026-05-07 22:47 | 35.47709 | -97.32763 | 4991 ft | 244 kts | 349° |
| 2026-05-07 22:48 | 35.49173 | -97.33795 | 5011 ft | 248 kts | 315° |
| 2026-05-07 22:48 | 35.49937 | -97.35701 | 5022 ft | 256 kts | 282° |
| 2026-05-07 22:48 | 35.49732 | -97.37868 | 5008 ft | 262 kts | 249° |
| 2026-05-07 22:48 | 35.48619 | -97.39620 | 5004 ft | 262 kts | 220° |
| 2026-05-07 22:49 | 35.47142 | -97.40934 | 4997 ft | 263 kts | 214° |
| 2026-05-07 22:49 | 35.45617 | -97.42086 | 5009 ft | 264 kts | 210° |
| 2026-05-07 22:49 | 35.43964 | -97.43153 | 4959 ft | 267 kts | 206° |
| 2026-05-07 22:49 | 35.42252 | -97.44047 | 4940 ft | 267 kts | 200° |
| 2026-05-07 22:50 | 35.40485 | -97.44735 | 4984 ft | 265 kts | 194° |
| 2026-05-07 22:50 | 35.38672 | -97.45174 | 5007 ft | 265 kts | 187° |
| 2026-05-07 22:50 | 35.36822 | -97.45320 | 5007 ft | 266 kts | 179° |
| 2026-05-07 22:50 | 35.34997 | -97.45212 | 5002 ft | 266 kts | 173° |
| 2026-05-07 22:51 | 35.33162 | -97.44851 | 4893 ft | 268 kts | 166° |
| 2026-05-07 22:51 | 35.31345 | -97.44246 | 4671 ft | 273 kts | 159° |
| 2026-05-07 22:51 | 35.29572 | -97.43416 | 4683 ft | 266 kts | 154° |
| 2026-05-07 22:51 | 35.27957 | -97.42424 | 4908 ft | 257 kts | 148° |
| 2026-05-07 22:52 | 35.26452 | -97.41251 | 4964 ft | 256 kts | 143° |
| 2026-05-07 22:52 | 35.24997 | -97.39986 | 4988 ft | 257 kts | 141° |
| 2026-05-07 22:52 | 35.23536 | -97.38699 | 4996 ft | 259 kts | 141° |
| 2026-05-07 22:52 | 35.22061 | -97.37419 | 5004 ft | 260 kts | 142° |
| 2026-05-07 22:53 | 35.20554 | -97.36157 | 4997 ft | 265 kts | 143° |
| 2026-05-07 22:53 | 35.19019 | -97.34893 | 5008 ft | 267 kts | 143° |
| 2026-05-07 22:53 | 35.17491 | -97.33612 | 5025 ft | 268 kts | 142° |
| 2026-05-07 22:53 | 35.15945 | -97.32318 | 5015 ft | 269 kts | 143° |
| 2026-05-07 22:54 | 35.14414 | -97.31047 | 5034 ft | 271 kts | 143° |
| 2026-05-07 22:54 | 35.12855 | -97.29744 | 5027 ft | 272 kts | 143° |
| 2026-05-07 22:54 | 35.11284 | -97.28441 | 5007 ft | 273 kts | 143° |
| 2026-05-07 22:54 | 35.09717 | -97.27134 | 5012 ft | 273 kts | 143° |
| 2026-05-07 22:55 | 35.08145 | -97.25826 | 5027 ft | 273 kts | 143° |
| 2026-05-07 22:55 | 35.06569 | -97.24525 | 5026 ft | 274 kts | 143° |
| 2026-05-07 22:55 | 35.04987 | -97.23230 | 5019 ft | 273 kts | 143° |
| 2026-05-07 22:55 | 35.03414 | -97.21941 | 4998 ft | 271 kts | 143° |
| 2026-05-07 22:56 | 35.01855 | -97.20656 | 5029 ft | 270 kts | 143° |
| 2026-05-07 22:56 | 35.00307 | -97.19370 | 5033 ft | 269 kts | 143° |
| 2026-05-07 22:56 | 34.98779 | -97.18090 | 5032 ft | 269 kts | 143° |
| 2026-05-07 22:56 | 34.97246 | -97.16784 | 5047 ft | 268 kts | 140° |
| 2026-05-07 22:57 | 34.95789 | -97.15370 | 5044 ft | 267 kts | 137° |
| 2026-05-07 22:57 | 34.94379 | -97.13900 | 5042 ft | 267 kts | 137° |
| 2026-05-07 22:57 | 34.92965 | -97.12432 | 5042 ft | 267 kts | 137° |
| 2026-05-07 22:57 | 34.91553 | -97.10966 | 5048 ft | 267 kts | 137° |
| 2026-05-07 22:58 | 34.90129 | -97.09500 | 5060 ft | 267 kts | 137° |
| 2026-05-07 22:58 | 34.88717 | -97.08047 | 5134 ft | 266 kts | 137° |
| 2026-05-07 22:58 | 34.87309 | -97.06582 | 5171 ft | 265 kts | 137° |
| 2026-05-07 22:58 | 34.85928 | -97.05154 | 5564 ft | 249 kts | 137° |
| 2026-05-07 22:59 | 34.84672 | -97.03843 | 6359 ft | 227 kts | 138° |
| 2026-05-07 22:59 | 34.83508 | -97.02590 | 6847 ft | 219 kts | 139° |
| 2026-05-07 22:59 | 34.82439 | -97.01444 | 7586 ft | 199 kts | 141° |
| 2026-05-07 22:59 | 34.81424 | -97.00377 | 8324 ft | 190 kts | 144° |
| 2026-05-07 23:00 | 34.80411 | -96.99333 | 9082 ft | 192 kts | 147° |
| 2026-05-07 23:00 | 34.79380 | -96.98290 | 9860 ft | 193 kts | 149° |
| 2026-05-07 23:00 | 34.78346 | -96.97247 | 10569 ft | 193 kts | 150° |
| 2026-05-07 23:00 | 34.77310 | -96.96197 | 11293 ft | 193 kts | 152° |
| 2026-05-07 23:01 | 34.76285 | -96.95147 | 12034 ft | 192 kts | 152° |
| 2026-05-07 23:01 | 34.75270 | -96.94103 | 12777 ft | 189 kts | 153° |
| 2026-05-07 23:01 | 34.74277 | -96.93070 | 13553 ft | 185 kts | 154° |
| 2026-05-07 23:01 | 34.73311 | -96.92065 | 14290 ft | 180 kts | 156° |
| 2026-05-07 23:02 | 34.72371 | -96.91085 | 14934 ft | 176 kts | 158° |
| 2026-05-07 23:02 | 34.71451 | -96.90140 | 15514 ft | 175 kts | 159° |
| 2026-05-07 23:02 | 34.70508 | -96.89183 | 16079 ft | 174 kts | 160° |
| 2026-05-07 23:02 | 34.69590 | -96.88251 | 16622 ft | 174 kts | 161° |
| 2026-05-07 23:03 | 34.68656 | -96.87303 | 17125 ft | 178 kts | 161° |
| 2026-05-07 23:03 | 34.67584 | -96.86300 | 17146 ft | 211 kts | 161° |
| 2026-05-07 23:03 | 34.66321 | -96.85126 | 17156 ft | 245 kts | 157° |
| 2026-05-07 23:03 | 34.64938 | -96.83725 | 17158 ft | 271 kts | 153° |
| 2026-05-07 23:04 | 34.63475 | -96.82153 | 17153 ft | 290 kts | 151° |
| 2026-05-07 23:04 | 34.61919 | -96.80481 | 17130 ft | 303 kts | 151° |
| 2026-05-07 23:04 | 34.60311 | -96.78762 | 17084 ft | 313 kts | 150° |
| 2026-05-07 23:04 | 34.58648 | -96.77012 | 17059 ft | 319 kts | 151° |
| 2026-05-07 23:05 | 34.56943 | -96.75257 | 17045 ft | 323 kts | 152° |
| 2026-05-07 23:05 | 34.55217 | -96.73487 | 17036 ft | 326 kts | 151° |
| 2026-05-07 23:05 | 34.53498 | -96.71726 | 17034 ft | 328 kts | 150° |
| 2026-05-07 23:05 | 34.51756 | -96.69942 | 17036 ft | 329 kts | 151° |
| 2026-05-07 23:06 | 34.50001 | -96.68145 | 17029 ft | 330 kts | 151° |
| 2026-05-07 23:06 | 34.48240 | -96.66344 | 17029 ft | 331 kts | 151° |
| 2026-05-07 23:06 | 34.46481 | -96.64546 | 17023 ft | 331 kts | 151° |
| 2026-05-07 23:06 | 34.44717 | -96.62745 | 17023 ft | 331 kts | 151° |
| 2026-05-07 23:07 | 34.42954 | -96.60945 | 17026 ft | 332 kts | 151° |
| 2026-05-07 23:07 | 34.41189 | -96.59145 | 17024 ft | 332 kts | 151° |
| 2026-05-07 23:07 | 34.39431 | -96.57352 | 17024 ft | 327 kts | 151° |
| 2026-05-07 23:07 | 34.37706 | -96.55586 | 17024 ft | 321 kts | 151° |
| 2026-05-07 23:08 | 34.36010 | -96.53866 | 17026 ft | 316 kts | 152° |
| 2026-05-07 23:08 | 34.34328 | -96.52157 | 17026 ft | 313 kts | 152° |
| 2026-05-07 23:08 | 34.32663 | -96.50464 | 17025 ft | 311 kts | 152° |
| 2026-05-07 23:08 | 34.31031 | -96.48805 | 17026 ft | 309 kts | 152° |
| 2026-05-07 23:09 | 34.29386 | -96.47132 | 17027 ft | 308 kts | 152° |
| 2026-05-07 23:09 | 34.27745 | -96.45464 | 17030 ft | 307 kts | 152° |
| 2026-05-07 23:09 | 34.26109 | -96.43803 | 17033 ft | 307 kts | 152° |
| 2026-05-07 23:09 | 34.24474 | -96.42144 | 17037 ft | 306 kts | 152° |
| 2026-05-07 23:10 | 34.22844 | -96.40490 | 17038 ft | 306 kts | 152° |
| 2026-05-07 23:10 | 34.21762 | -96.39394 | 17044 ft | 306 kts | 152° |
| 2026-05-07 23:10 | 34.20132 | -96.37742 | 17044 ft | 306 kts | 152° |
| 2026-05-07 23:10 | 34.18504 | -96.36094 | 17047 ft | 306 kts | 152° |
| 2026-05-07 23:11 | 34.16874 | -96.34443 | 17047 ft | 305 kts | 152° |
| 2026-05-07 23:11 | 34.15244 | -96.32792 | 17052 ft | 305 kts | 152° |
| 2026-05-07 23:11 | 34.13616 | -96.31147 | 17053 ft | 305 kts | 152° |
| 2026-05-07 23:11 | 34.11988 | -96.29501 | 17047 ft | 305 kts | 151° |
| 2026-05-07 23:12 | 34.10362 | -96.27858 | 17053 ft | 305 kts | 152° |
| 2026-05-07 23:12 | 34.08735 | -96.26215 | 17053 ft | 305 kts | 152° |
| 2026-05-07 23:12 | 34.07110 | -96.24575 | 17060 ft | 304 kts | 152° |
| 2026-05-07 23:12 | 34.05481 | -96.22934 | 17062 ft | 304 kts | 152° |
| 2026-05-07 23:13 | 34.03855 | -96.21294 | 17054 ft | 305 kts | 151° |
| 2026-05-07 23:13 | 34.02228 | -96.19655 | 17059 ft | 305 kts | 152° |
| 2026-05-07 23:13 | 34.00626 | -96.18039 | 17047 ft | 304 kts | 151° |
| 2026-05-07 23:13 | 33.98995 | -96.16400 | 17058 ft | 305 kts | 152° |
| 2026-05-07 23:14 | 33.97367 | -96.14762 | 17060 ft | 305 kts | 152° |
| 2026-05-07 23:14 | 33.95737 | -96.13119 | 17055 ft | 305 kts | 152° |
| 2026-05-07 23:14 | 33.94109 | -96.11483 | 17050 ft | 305 kts | 152° |
| 2026-05-07 23:14 | 33.92485 | -96.09848 | 17048 ft | 304 kts | 151° |
| 2026-05-07 23:15 | 33.90851 | -96.08237 | 17048 ft | 300 kts | 154° |
| 2026-05-07 23:15 | 33.89215 | -96.06713 | 17051 ft | 301 kts | 153° |
| 2026-05-07 23:15 | 33.87586 | -96.05109 | 17042 ft | 303 kts | 152° |
| 2026-05-07 23:15 | 33.85953 | -96.03543 | 17038 ft | 291 kts | 160° |
| 2026-05-07 23:16 | 33.84149 | -96.02862 | 17043 ft | 259 kts | 191° |
| 2026-05-07 23:16 | 33.82536 | -96.03411 | 17049 ft | 233 kts | 222° |
| 2026-05-07 23:16 | 33.81499 | -96.04840 | 17048 ft | 226 kts | 238° |
| 2026-05-07 23:16 | 33.80604 | -96.06401 | 17047 ft | 228 kts | 238° |
| 2026-05-07 23:17 | 33.79615 | -96.07910 | 17046 ft | 231 kts | 233° |
| 2026-05-07 23:17 | 33.78502 | -96.09307 | 17047 ft | 233 kts | 230° |
| 2026-05-07 23:17 | 33.77263 | -96.10578 | 17047 ft | 236 kts | 224° |
| 2026-05-07 23:17 | 33.75920 | -96.11731 | 17047 ft | 238 kts | 220° |
| 2026-05-07 23:18 | 33.74497 | -96.12729 | 17048 ft | 242 kts | 216° |
| 2026-05-07 23:18 | 33.72955 | -96.13576 | 17048 ft | 245 kts | 211° |
| 2026-05-07 23:18 | 33.71343 | -96.14288 | 17047 ft | 247 kts | 208° |
| 2026-05-07 23:18 | 33.69708 | -96.14949 | 17044 ft | 248 kts | 208° |
| 2026-05-07 23:19 | 33.68073 | -96.15610 | 17043 ft | 248 kts | 208° |
| 2026-05-07 23:19 | 33.66439 | -96.16282 | 17046 ft | 248 kts | 208° |
| 2026-05-07 23:19 | 33.64816 | -96.16958 | 17039 ft | 248 kts | 208° |
| 2026-05-07 23:19 | 33.63185 | -96.17648 | 17041 ft | 247 kts | 209° |
| 2026-05-07 23:20 | 33.61572 | -96.18340 | 16836 ft | 254 kts | 208° |
| 2026-05-07 23:20 | 33.59893 | -96.19076 | 16463 ft | 259 kts | 209° |
| 2026-05-07 23:20 | 33.58194 | -96.19839 | 16087 ft | 263 kts | 208° |
| 2026-05-07 23:20 | 33.56463 | -96.20593 | 15707 ft | 266 kts | 208° |
| 2026-05-07 23:21 | 33.54710 | -96.21345 | 15325 ft | 269 kts | 207° |
| 2026-05-07 23:21 | 33.52941 | -96.22101 | 14958 ft | 271 kts | 207° |
| 2026-05-07 23:21 | 33.51159 | -96.22861 | 14584 ft | 273 kts | 207° |
| 2026-05-07 23:21 | 33.49971 | -96.23367 | 14325 ft | 274 kts | 206° |
| 2026-05-07 23:22 | 33.49155 | -96.23717 | 14163 ft | 275 kts | 207° |
| 2026-05-07 23:22 | 33.47345 | -96.24486 | 13781 ft | 277 kts | 206° |
| 2026-05-07 23:22 | 33.45528 | -96.25261 | 13352 ft | 277 kts | 206° |
| 2026-05-07 23:23 | 33.43711 | -96.26035 | 12935 ft | 277 kts | 206° |
| 2026-05-07 23:23 | 33.41903 | -96.26806 | 12533 ft | 273 kts | 206° |
| 2026-05-07 23:23 | 33.40122 | -96.27560 | 12121 ft | 268 kts | 205° |
| 2026-05-07 23:23 | 33.38371 | -96.28305 | 11723 ft | 265 kts | 205° |
| 2026-05-07 23:24 | 33.36640 | -96.29039 | 11330 ft | 263 kts | 205° |
| 2026-05-07 23:24 | 33.34922 | -96.29770 | 10952 ft | 262 kts | 205° |
| 2026-05-07 23:24 | 33.33206 | -96.30498 | 10582 ft | 261 kts | 204° |
| 2026-05-07 23:24 | 33.31522 | -96.31212 | 10229 ft | 259 kts | 204° |
| 2026-05-07 23:25 | 33.29895 | -96.31900 | 10135 ft | 237 kts | 204° |
| 2026-05-07 23:25 | 33.28402 | -96.32525 | 10088 ft | 219 kts | 205° |
| 2026-05-07 23:25 | 33.27014 | -96.33107 | 10063 ft | 203 kts | 205° |
| 2026-05-07 23:25 | 33.25900 | -96.33917 | 10057 ft | 177 kts | 231° |
| 2026-05-07 23:26 | 33.25098 | -96.35067 | 9508 ft | 188 kts | 234° |
| 2026-05-07 23:26 | 33.24288 | -96.36364 | 8743 ft | 201 kts | 236° |
| 2026-05-07 23:26 | 33.23446 | -96.37742 | 8022 ft | 210 kts | 236° |
| 2026-05-07 23:26 | 33.22577 | -96.39152 | 7313 ft | 217 kts | 235° |
| 2026-05-07 23:27 | 33.20705 | -96.42072 | 5887 ft | 225 kts | 234° |
| 2026-05-07 23:27 | 33.19753 | -96.43540 | 5431 ft | 218 kts | 234° |
| 2026-05-07 23:27 | 33.18855 | -96.44910 | 5234 ft | 202 kts | 233° |
| 2026-05-07 23:28 | 33.18019 | -96.46171 | 5134 ft | 185 kts | 234° |
| 2026-05-07 23:28 | 33.17281 | -96.47339 | 5073 ft | 168 kts | 236° |
| 2026-05-07 23:28 | 33.16630 | -96.48411 | 5060 ft | 151 kts | 237° |
| 2026-05-07 23:28 | 33.16052 | -96.49383 | 5044 ft | 136 kts | 238° |
| 2026-05-07 23:29 | 33.15543 | -96.50256 | 5032 ft | 129 kts | 237° |
| 2026-05-07 23:29 | 33.14958 | -96.51224 | 5052 ft | 153 kts | 237° |
| 2026-05-07 23:29 | 33.14327 | -96.52325 | 5069 ft | 172 kts | 238° |
| 2026-05-07 23:29 | 33.13639 | -96.53575 | 5062 ft | 188 kts | 238° |
| 2026-05-07 23:30 | 33.12882 | -96.54903 | 5061 ft | 198 kts | 237° |
| 2026-05-07 23:30 | 33.12085 | -96.56273 | 5054 ft | 205 kts | 237° |
| 2026-05-07 23:30 | 33.11254 | -96.57694 | 5071 ft | 212 kts | 237° |
| 2026-05-07 23:30 | 33.10391 | -96.59155 | 5056 ft | 218 kts | 236° |
| 2026-05-07 23:31 | 33.09512 | -96.60651 | 5044 ft | 222 kts | 237° |
| 2026-05-07 23:31 | 33.08621 | -96.62159 | 5031 ft | 223 kts | 237° |
| 2026-05-07 23:31 | 33.07723 | -96.63672 | 5035 ft | 223 kts | 236° |
| 2026-05-07 23:31 | 33.06826 | -96.65182 | 5041 ft | 224 kts | 236° |
| 2026-05-07 23:32 | 33.05930 | -96.66696 | 5047 ft | 224 kts | 237° |
| 2026-05-07 23:32 | 33.05033 | -96.68218 | 5044 ft | 225 kts | 237° |
| 2026-05-07 23:32 | 33.04135 | -96.69745 | 5048 ft | 225 kts | 237° |
| 2026-05-07 23:32 | 33.03237 | -96.71269 | 5041 ft | 225 kts | 237° |
| 2026-05-07 23:33 | 33.02336 | -96.72792 | 5056 ft | 225 kts | 236° |
| 2026-05-07 23:33 | 33.01435 | -96.74319 | 5052 ft | 225 kts | 237° |
| 2026-05-07 23:33 | 33.00553 | -96.75810 | 5033 ft | 225 kts | 237° |
| 2026-05-07 23:33 | 32.99783 | -96.77115 | 4838 ft | 233 kts | 237° |
| 2026-05-07 23:34 | 32.98835 | -96.78726 | 4600 ft | 240 kts | 237° |
| 2026-05-07 23:34 | 32.97894 | -96.80342 | 4346 ft | 236 kts | 237° |
| 2026-05-07 23:34 | 32.96973 | -96.81939 | 4088 ft | 233 kts | 237° |
| 2026-05-07 23:34 | 32.96065 | -96.83524 | 3842 ft | 228 kts | 237° |
| 2026-05-07 23:35 | 32.95220 | -96.85022 | 3598 ft | 206 kts | 237° |
| 2026-05-07 23:35 | 32.94463 | -96.86380 | 3344 ft | 190 kts | 237° |
| 2026-05-07 23:35 | 32.93744 | -96.87668 | 3086 ft | 185 kts | 237° |
| 2026-05-07 23:35 | 32.92982 | -96.88865 | 2804 ft | 180 kts | 220° |
| 2026-05-07 23:36 | 32.91826 | -96.89251 | 2658 ft | 171 kts | 171° |
| 2026-05-07 23:36 | 32.90833 | -96.88637 | 2613 ft | 156 kts | 141° |
| 2026-05-07 23:36 | 32.89974 | -96.87898 | 2582 ft | 149 kts | 141° |
| 2026-05-07 23:36 | 32.89153 | -96.87187 | 2562 ft | 142 kts | 141° |
| 2026-05-07 23:37 | 32.88384 | -96.86497 | 2546 ft | 134 kts | 140° |
| 2026-05-07 23:37 | 32.87662 | -96.85849 | 2575 ft | 130 kts | 140° |
| 2026-05-07 23:37 | 32.86944 | -96.85206 | 2566 ft | 128 kts | 140° |
| 2026-05-07 23:37 | 32.86238 | -96.84570 | 2565 ft | 127 kts | 140° |
| 2026-05-07 23:38 | 32.85537 | -96.83933 | 2504 ft | 127 kts | 140° |
| 2026-05-07 23:38 | 32.84991 | -96.83168 | 2495 ft | 119 kts | 115° |
| 2026-05-07 23:38 | 32.84380 | -96.82523 | 2480 ft | 120 kts | 149° |
| 2026-05-07 23:38 | 32.83693 | -96.82002 | 2442 ft | 119 kts | 143° |
| 2026-05-07 23:39 | 32.83030 | -96.81457 | 2420 ft | 112 kts | 142° |
| 2026-05-07 23:39 | 32.82411 | -96.80880 | 2299 ft | 120 kts | 127° |
| 2026-05-07 23:39 | 32.82091 | -96.80026 | 2517 ft | 111 kts | 122° |
| 2026-05-07 23:39 | 32.81332 | -96.79960 | 2280 ft | 140 kts | 242° |
| 2026-05-07 23:40 | 32.81672 | -96.80956 | 1993 ft | 144 kts | 319° |
| 2026-05-07 23:40 | 32.82434 | -96.81866 | 1103 ft | 161 kts | 314° |
| 2026-05-07 23:40 | 32.83104 | -96.82651 | 797 ft | 125 kts | 315° |
| 2026-05-07 23:40 | 32.83778 | -96.83429 | 652 ft | 134 kts | 314° |
| 2026-05-07 23:41 | 32.84415 | -96.84154 | 502 ft | 119 kts | 312° |
| 2026-05-07 23:41 | 32.84827 | -96.84640 | 490 ft | 33 kts | 315° |
| 2026-05-07 23:41 | 32.84944 | -96.84771 | 488 ft | 25 kts | 319° |
| 2026-05-07 23:41 | 32.85035 | -96.84822 | 486 ft | 17 kts | 28° |
| 2026-05-07 23:42 | 32.85016 | -96.84666 | 485 ft | 26 kts | 128° |
| 2026-05-07 23:42 | 32.84939 | -96.84587 | 487 ft | 0 kts | 134° |
| 2026-05-07 23:42 | 32.84926 | -96.84571 | 487 ft | 9 kts | 136° |
| 2026-05-07 23:43 | 32.84848 | -96.84494 | 484 ft | 20 kts | 147° |
| 2026-05-07 23:43 | 32.84780 | -96.84386 | 485 ft | 14 kts | 93° |
| 2026-05-07 23:43 | 32.84824 | -96.84317 | 489 ft | 9 kts | 36° |
| 2026-05-07 23:43 | 32.84914 | -96.84247 | 492 ft | 18 kts | 32° |